sensor_id;sensor_type;location;lat;lon;timestamp;P1;durP1;ratioP1;P2;durP2;ratioP2
36745;SDS011;22715;52.182;21.206;2023-04-06T00:00:47;8.88;;;5.10;;
36745;SDS011;22715;52.182;21.206;2023-04-06T00:03:12;11.05;;;5.38;;
36745;SDS011;22715;52.182;21.206;2023-04-06T00:05:38;11.07;;;5.38;;
36745;SDS011;22715;52.182;21.206;2023-04-06T00:08:06;9.10;;;5.05;;
36745;SDS011;22715;52.182;21.206;2023-04-06T00:10:32;13.18;;;6.75;;
36745;SDS011;22715;52.182;21.206;2023-04-06T00:12:58;9.40;;;4.15;;
36745;SDS011;22715;52.182;21.206;2023-04-06T00:15:25;8.07;;;5.50;;
36745;SDS011;22715;52.182;21.206;2023-04-06T00:17:51;10.32;;;4.70;;
36745;SDS011;22715;52.182;21.206;2023-04-06T00:20:16;14.05;;;6.22;;
36745;SDS011;22715;52.182;21.206;2023-04-06T00:22:42;12.40;;;5.53;;
36745;SDS011;22715;52.182;21.206;2023-04-06T00:25:08;13.80;;;6.07;;
36745;SDS011;22715;52.182;21.206;2023-04-06T00:30:22;8.80;;;5.63;;
36745;SDS011;22715;52.182;21.206;2023-04-06T00:32:48;9.32;;;4.80;;
36745;SDS011;22715;52.182;21.206;2023-04-06T00:35:13;10.68;;;4.97;;
36745;SDS011;22715;52.182;21.206;2023-04-06T00:37:40;9.10;;;5.28;;
36745;SDS011;22715;52.182;21.206;2023-04-06T00:40:05;8.02;;;4.32;;
36745;SDS011;22715;52.182;21.206;2023-04-06T00:42:31;9.73;;;4.90;;
36745;SDS011;22715;52.182;21.206;2023-04-06T00:44:57;7.78;;;5.65;;
36745;SDS011;22715;52.182;21.206;2023-04-06T00:47:23;9.85;;;4.63;;
36745;SDS011;22715;52.182;21.206;2023-04-06T00:49:50;5.35;;;3.80;;
36745;SDS011;22715;52.182;21.206;2023-04-06T00:52:15;8.15;;;4.68;;
36745;SDS011;22715;52.182;21.206;2023-04-06T00:54:41;7.55;;;4.20;;
36745;SDS011;22715;52.182;21.206;2023-04-06T00:57:06;8.50;;;4.75;;
36745;SDS011;22715;52.182;21.206;2023-04-06T00:59:32;8.90;;;5.47;;
36745;SDS011;22715;52.182;21.206;2023-04-06T01:01:57;7.78;;;4.68;;
36745;SDS011;22715;52.182;21.206;2023-04-06T01:04:24;7.05;;;4.82;;
36745;SDS011;22715;52.182;21.206;2023-04-06T01:06:50;6.43;;;4.30;;
36745;SDS011;22715;52.182;21.206;2023-04-06T01:09:16;8.02;;;4.47;;
36745;SDS011;22715;52.182;21.206;2023-04-06T01:11:41;10.90;;;5.50;;
36745;SDS011;22715;52.182;21.206;2023-04-06T01:14:08;8.68;;;4.50;;
36745;SDS011;22715;52.182;21.206;2023-04-06T01:16:40;6.72;;;4.13;;
36745;SDS011;22715;52.182;21.206;2023-04-06T01:21:53;9.25;;;5.15;;
36745;SDS011;22715;52.182;21.206;2023-04-06T01:24:19;10.30;;;6.53;;
36745;SDS011;22715;52.182;21.206;2023-04-06T01:26:44;8.15;;;5.03;;
36745;SDS011;22715;52.182;21.206;2023-04-06T01:29:24;9.23;;;5.68;;
36745;SDS011;22715;52.182;21.206;2023-04-06T01:31:50;8.90;;;3.55;;
36745;SDS011;22715;52.182;21.206;2023-04-06T01:34:15;8.93;;;5.22;;
36745;SDS011;22715;52.182;21.206;2023-04-06T01:36:41;6.93;;;5.13;;
36745;SDS011;22715;52.182;21.206;2023-04-06T01:41:41;7.57;;;4.88;;
36745;SDS011;22715;52.182;21.206;2023-04-06T01:44:06;9.18;;;5.25;;
36745;SDS011;22715;52.182;21.206;2023-04-06T01:46:31;10.75;;;5.82;;
36745;SDS011;22715;52.182;21.206;2023-04-06T01:48:57;6.72;;;4.93;;
36745;SDS011;22715;52.182;21.206;2023-04-06T01:51:22;11.20;;;6.35;;
36745;SDS011;22715;52.182;21.206;2023-04-06T01:53:49;11.10;;;5.10;;
36745;SDS011;22715;52.182;21.206;2023-04-06T01:56:15;9.80;;;5.45;;
36745;SDS011;22715;52.182;21.206;2023-04-06T01:58:40;12.07;;;5.63;;
36745;SDS011;22715;52.182;21.206;2023-04-06T02:01:05;8.55;;;5.03;;
36745;SDS011;22715;52.182;21.206;2023-04-06T02:03:31;9.43;;;5.93;;
36745;SDS011;22715;52.182;21.206;2023-04-06T02:05:56;8.23;;;5.70;;
36745;SDS011;22715;52.182;21.206;2023-04-06T02:08:21;13.80;;;5.18;;
36745;SDS011;22715;52.182;21.206;2023-04-06T02:10:47;7.50;;;4.57;;
36745;SDS011;22715;52.182;21.206;2023-04-06T02:13:12;10.07;;;5.55;;
36745;SDS011;22715;52.182;21.206;2023-04-06T02:15:40;13.85;;;5.85;;
36745;SDS011;22715;52.182;21.206;2023-04-06T02:18:05;9.50;;;5.63;;
36745;SDS011;22715;52.182;21.206;2023-04-06T02:20:30;9.35;;;4.65;;
36745;SDS011;22715;52.182;21.206;2023-04-06T02:22:58;11.95;;;5.85;;
36745;SDS011;22715;52.182;21.206;2023-04-06T02:25:24;13.00;;;6.07;;
36745;SDS011;22715;52.182;21.206;2023-04-06T02:27:51;9.82;;;5.00;;
36745;SDS011;22715;52.182;21.206;2023-04-06T02:30:18;7.32;;;4.85;;
36745;SDS011;22715;52.182;21.206;2023-04-06T02:32:43;10.32;;;5.82;;
36745;SDS011;22715;52.182;21.206;2023-04-06T02:35:11;7.47;;;4.40;;
36745;SDS011;22715;52.182;21.206;2023-04-06T02:37:36;7.85;;;5.13;;
36745;SDS011;22715;52.182;21.206;2023-04-06T02:40:02;9.52;;;5.35;;
36745;SDS011;22715;52.182;21.206;2023-04-06T02:42:27;11.48;;;5.35;;
36745;SDS011;22715;52.182;21.206;2023-04-06T02:44:53;10.52;;;4.63;;
36745;SDS011;22715;52.182;21.206;2023-04-06T02:49:50;10.90;;;5.20;;
36745;SDS011;22715;52.182;21.206;2023-04-06T02:52:17;7.97;;;5.43;;
36745;SDS011;22715;52.182;21.206;2023-04-06T02:54:43;10.73;;;5.35;;
36745;SDS011;22715;52.182;21.206;2023-04-06T02:57:08;7.72;;;5.05;;
36745;SDS011;22715;52.182;21.206;2023-04-06T02:59:33;8.25;;;4.38;;
36745;SDS011;22715;52.182;21.206;2023-04-06T03:01:58;6.20;;;4.40;;
36745;SDS011;22715;52.182;21.206;2023-04-06T03:04:30;9.25;;;4.57;;
36745;SDS011;22715;52.182;21.206;2023-04-06T03:06:55;11.55;;;4.90;;
36745;SDS011;22715;52.182;21.206;2023-04-06T03:09:21;9.50;;;4.15;;
36745;SDS011;22715;52.182;21.206;2023-04-06T03:11:55;8.82;;;5.43;;
36745;SDS011;22715;52.182;21.206;2023-04-06T03:17:32;7.55;;;4.35;;
36745;SDS011;22715;52.182;21.206;2023-04-06T03:19:57;10.05;;;5.32;;
36745;SDS011;22715;52.182;21.206;2023-04-06T03:22:24;9.40;;;5.10;;
36745;SDS011;22715;52.182;21.206;2023-04-06T03:24:49;11.82;;;5.45;;
36745;SDS011;22715;52.182;21.206;2023-04-06T03:27:23;10.95;;;6.18;;
36745;SDS011;22715;52.182;21.206;2023-04-06T03:29:49;10.80;;;5.72;;
36745;SDS011;22715;52.182;21.206;2023-04-06T03:32:17;11.75;;;5.80;;
36745;SDS011;22715;52.182;21.206;2023-04-06T03:34:42;8.93;;;4.78;;
36745;SDS011;22715;52.182;21.206;2023-04-06T03:37:08;9.38;;;4.72;;
36745;SDS011;22715;52.182;21.206;2023-04-06T03:39:33;8.93;;;5.85;;
36745;SDS011;22715;52.182;21.206;2023-04-06T03:41:59;8.85;;;5.35;;
36745;SDS011;22715;52.182;21.206;2023-04-06T03:44:26;10.38;;;5.93;;
36745;SDS011;22715;52.182;21.206;2023-04-06T03:46:51;17.05;;;6.93;;
36745;SDS011;22715;52.182;21.206;2023-04-06T03:49:27;16.13;;;5.78;;
36745;SDS011;22715;52.182;21.206;2023-04-06T03:51:52;10.13;;;5.68;;
36745;SDS011;22715;52.182;21.206;2023-04-06T03:54:36;12.57;;;6.57;;
36745;SDS011;22715;52.182;21.206;2023-04-06T03:57:04;10.70;;;5.68;;
36745;SDS011;22715;52.182;21.206;2023-04-06T03:59:30;8.88;;;5.10;;
36745;SDS011;22715;52.182;21.206;2023-04-06T04:01:55;9.40;;;5.97;;
36745;SDS011;22715;52.182;21.206;2023-04-06T04:04:20;11.07;;;7.10;;
36745;SDS011;22715;52.182;21.206;2023-04-06T04:06:46;9.90;;;5.97;;
36745;SDS011;22715;52.182;21.206;2023-04-06T04:09:11;11.55;;;5.95;;
36745;SDS011;22715;52.182;21.206;2023-04-06T04:11:36;15.95;;;6.88;;
36745;SDS011;22715;52.182;21.206;2023-04-06T04:14:02;9.25;;;4.72;;
36745;SDS011;22715;52.182;21.206;2023-04-06T04:16:27;11.02;;;5.10;;
36745;SDS011;22715;52.182;21.206;2023-04-06T04:18:52;14.52;;;6.05;;
36745;SDS011;22715;52.182;21.206;2023-04-06T04:21:18;12.45;;;5.82;;
36745;SDS011;22715;52.182;21.206;2023-04-06T04:23:43;11.50;;;5.53;;
36745;SDS011;22715;52.182;21.206;2023-04-06T04:26:08;13.40;;;5.53;;
36745;SDS011;22715;52.182;21.206;2023-04-06T04:28:34;9.25;;;5.93;;
36745;SDS011;22715;52.182;21.206;2023-04-06T04:30:59;13.48;;;4.90;;
36745;SDS011;22715;52.182;21.206;2023-04-06T04:33:25;11.85;;;6.70;;
36745;SDS011;22715;52.182;21.206;2023-04-06T04:35:50;13.73;;;6.25;;
36745;SDS011;22715;52.182;21.206;2023-04-06T04:38:16;12.32;;;5.40;;
36745;SDS011;22715;52.182;21.206;2023-04-06T04:40:47;8.45;;;5.60;;
36745;SDS011;22715;52.182;21.206;2023-04-06T04:43:14;10.35;;;6.50;;
36745;SDS011;22715;52.182;21.206;2023-04-06T04:45:44;12.55;;;6.50;;
36745;SDS011;22715;52.182;21.206;2023-04-06T04:48:21;8.32;;;5.70;;
36745;SDS011;22715;52.182;21.206;2023-04-06T04:50:48;13.85;;;5.28;;
36745;SDS011;22715;52.182;21.206;2023-04-06T04:53:18;8.95;;;5.38;;
36745;SDS011;22715;52.182;21.206;2023-04-06T04:55:45;11.13;;;5.13;;
36745;SDS011;22715;52.182;21.206;2023-04-06T04:58:10;7.38;;;4.03;;
36745;SDS011;22715;52.182;21.206;2023-04-06T05:00:40;10.93;;;6.10;;
36745;SDS011;22715;52.182;21.206;2023-04-06T05:03:05;7.45;;;4.75;;
36745;SDS011;22715;52.182;21.206;2023-04-06T05:05:34;11.38;;;5.38;;
36745;SDS011;22715;52.182;21.206;2023-04-06T05:08:00;14.95;;;6.35;;
36745;SDS011;22715;52.182;21.206;2023-04-06T05:10:29;6.75;;;4.63;;
36745;SDS011;22715;52.182;21.206;2023-04-06T05:12:54;7.63;;;4.93;;
36745;SDS011;22715;52.182;21.206;2023-04-06T05:15:20;7.45;;;4.47;;
36745;SDS011;22715;52.182;21.206;2023-04-06T05:17:45;8.98;;;5.13;;
36745;SDS011;22715;52.182;21.206;2023-04-06T05:20:10;9.50;;;4.35;;
36745;SDS011;22715;52.182;21.206;2023-04-06T05:22:37;8.77;;;5.18;;
36745;SDS011;22715;52.182;21.206;2023-04-06T05:25:02;8.98;;;4.60;;
36745;SDS011;22715;52.182;21.206;2023-04-06T05:27:29;7.97;;;4.15;;
36745;SDS011;22715;52.182;21.206;2023-04-06T05:29:54;6.65;;;3.97;;
36745;SDS011;22715;52.182;21.206;2023-04-06T05:32:20;9.70;;;4.65;;
36745;SDS011;22715;52.182;21.206;2023-04-06T05:34:49;8.88;;;4.80;;
36745;SDS011;22715;52.182;21.206;2023-04-06T05:37:15;11.02;;;4.65;;
36745;SDS011;22715;52.182;21.206;2023-04-06T05:39:41;11.23;;;4.55;;
36745;SDS011;22715;52.182;21.206;2023-04-06T05:42:06;10.18;;;5.15;;
36745;SDS011;22715;52.182;21.206;2023-04-06T05:44:31;9.98;;;5.13;;
36745;SDS011;22715;52.182;21.206;2023-04-06T05:46:57;7.78;;;3.90;;
36745;SDS011;22715;52.182;21.206;2023-04-06T05:49:22;7.47;;;4.45;;
36745;SDS011;22715;52.182;21.206;2023-04-06T05:51:49;5.78;;;3.88;;
36745;SDS011;22715;52.182;21.206;2023-04-06T05:54:14;8.70;;;4.43;;
36745;SDS011;22715;52.182;21.206;2023-04-06T05:56:40;7.07;;;4.18;;
36745;SDS011;22715;52.182;21.206;2023-04-06T05:59:05;7.50;;;3.42;;
36745;SDS011;22715;52.182;21.206;2023-04-06T06:01:31;7.18;;;3.92;;
36745;SDS011;22715;52.182;21.206;2023-04-06T06:03:56;6.65;;;4.07;;
36745;SDS011;22715;52.182;21.206;2023-04-06T06:06:21;7.05;;;3.80;;
36745;SDS011;22715;52.182;21.206;2023-04-06T06:08:47;7.10;;;3.92;;
36745;SDS011;22715;52.182;21.206;2023-04-06T06:11:12;10.48;;;3.63;;
36745;SDS011;22715;52.182;21.206;2023-04-06T06:13:38;6.40;;;3.00;;
36745;SDS011;22715;52.182;21.206;2023-04-06T06:16:03;7.55;;;4.40;;
36745;SDS011;22715;52.182;21.206;2023-04-06T06:18:35;8.05;;;4.32;;
36745;SDS011;22715;52.182;21.206;2023-04-06T06:21:01;4.93;;;2.90;;
36745;SDS011;22715;52.182;21.206;2023-04-06T06:23:27;7.78;;;4.13;;
36745;SDS011;22715;52.182;21.206;2023-04-06T06:25:52;4.90;;;3.10;;
36745;SDS011;22715;52.182;21.206;2023-04-06T06:28:24;8.02;;;3.70;;
36745;SDS011;22715;52.182;21.206;2023-04-06T06:30:52;6.63;;;2.88;;
36745;SDS011;22715;52.182;21.206;2023-04-06T06:33:19;5.85;;;2.35;;
36745;SDS011;22715;52.182;21.206;2023-04-06T06:38:13;7.97;;;3.72;;
36745;SDS011;22715;52.182;21.206;2023-04-06T06:40:40;5.93;;;2.88;;
36745;SDS011;22715;52.182;21.206;2023-04-06T06:43:05;5.40;;;2.80;;
36745;SDS011;22715;52.182;21.206;2023-04-06T06:45:34;5.03;;;2.85;;
36745;SDS011;22715;52.182;21.206;2023-04-06T06:48:04;4.90;;;2.50;;
36745;SDS011;22715;52.182;21.206;2023-04-06T06:50:35;5.05;;;3.17;;
36745;SDS011;22715;52.182;21.206;2023-04-06T06:53:01;5.22;;;2.63;;
36745;SDS011;22715;52.182;21.206;2023-04-06T06:55:26;3.83;;;2.63;;
36745;SDS011;22715;52.182;21.206;2023-04-06T06:57:54;5.15;;;2.10;;
36745;SDS011;22715;52.182;21.206;2023-04-06T07:00:23;2.67;;;2.03;;
36745;SDS011;22715;52.182;21.206;2023-04-06T07:02:48;5.43;;;2.17;;
36745;SDS011;22715;52.182;21.206;2023-04-06T07:05:15;3.95;;;3.00;;
36745;SDS011;22715;52.182;21.206;2023-04-06T07:07:40;3.38;;;2.33;;
36745;SDS011;22715;52.182;21.206;2023-04-06T07:10:05;4.88;;;3.05;;
36745;SDS011;22715;52.182;21.206;2023-04-06T07:12:31;3.50;;;1.83;;
36745;SDS011;22715;52.182;21.206;2023-04-06T07:15:04;4.97;;;2.30;;
36745;SDS011;22715;52.182;21.206;2023-04-06T07:17:30;4.13;;;2.33;;
36745;SDS011;22715;52.182;21.206;2023-04-06T07:19:55;3.20;;;2.35;;
36745;SDS011;22715;52.182;21.206;2023-04-06T07:22:21;4.90;;;2.55;;
36745;SDS011;22715;52.182;21.206;2023-04-06T07:24:46;6.15;;;2.47;;
36745;SDS011;22715;52.182;21.206;2023-04-06T07:27:13;3.83;;;2.05;;
36745;SDS011;22715;52.182;21.206;2023-04-06T07:29:39;3.70;;;1.48;;
36745;SDS011;22715;52.182;21.206;2023-04-06T07:32:04;4.88;;;2.50;;
36745;SDS011;22715;52.182;21.206;2023-04-06T07:37:01;2.83;;;1.40;;
36745;SDS011;22715;52.182;21.206;2023-04-06T07:39:35;3.83;;;1.67;;
36745;SDS011;22715;52.182;21.206;2023-04-06T07:42:00;2.22;;;1.65;;
36745;SDS011;22715;52.182;21.206;2023-04-06T07:44:32;2.63;;;1.65;;
36745;SDS011;22715;52.182;21.206;2023-04-06T07:46:58;4.65;;;2.15;;
36745;SDS011;22715;52.182;21.206;2023-04-06T07:49:24;3.45;;;2.08;;
36745;SDS011;22715;52.182;21.206;2023-04-06T07:51:50;3.67;;;2.05;;
36745;SDS011;22715;52.182;21.206;2023-04-06T07:54:15;6.20;;;2.53;;
36745;SDS011;22715;52.182;21.206;2023-04-06T07:56:41;3.33;;;2.05;;
36745;SDS011;22715;52.182;21.206;2023-04-06T07:59:06;2.40;;;1.90;;
36745;SDS011;22715;52.182;21.206;2023-04-06T08:01:32;4.53;;;2.30;;
36745;SDS011;22715;52.182;21.206;2023-04-06T08:03:57;1.73;;;1.60;;
36745;SDS011;22715;52.182;21.206;2023-04-06T08:06:23;3.00;;;2.15;;
36745;SDS011;22715;52.182;21.206;2023-04-06T08:08:48;2.83;;;1.73;;
36745;SDS011;22715;52.182;21.206;2023-04-06T08:11:13;3.42;;;1.88;;
36745;SDS011;22715;52.182;21.206;2023-04-06T08:13:42;2.25;;;1.75;;
36745;SDS011;22715;52.182;21.206;2023-04-06T08:16:10;2.45;;;2.10;;
36745;SDS011;22715;52.182;21.206;2023-04-06T08:18:35;5.75;;;2.17;;
36745;SDS011;22715;52.182;21.206;2023-04-06T08:21:00;3.92;;;2.53;;
36745;SDS011;22715;52.182;21.206;2023-04-06T08:23:26;3.08;;;1.73;;
36745;SDS011;22715;52.182;21.206;2023-04-06T08:25:52;3.50;;;2.00;;
36745;SDS011;22715;52.182;21.206;2023-04-06T08:28:27;4.15;;;2.08;;
36745;SDS011;22715;52.182;21.206;2023-04-06T08:30:53;3.72;;;2.00;;
36745;SDS011;22715;52.182;21.206;2023-04-06T08:33:20;3.17;;;2.08;;
36745;SDS011;22715;52.182;21.206;2023-04-06T08:35:49;9.10;;;2.80;;
36745;SDS011;22715;52.182;21.206;2023-04-06T08:38:14;3.72;;;1.58;;
36745;SDS011;22715;52.182;21.206;2023-04-06T08:40:43;4.40;;;2.58;;
36745;SDS011;22715;52.182;21.206;2023-04-06T08:43:10;3.63;;;2.33;;
36745;SDS011;22715;52.182;21.206;2023-04-06T08:45:38;5.90;;;2.70;;
36745;SDS011;22715;52.182;21.206;2023-04-06T08:48:04;3.75;;;1.90;;
36745;SDS011;22715;52.182;21.206;2023-04-06T08:50:32;3.88;;;2.30;;
36745;SDS011;22715;52.182;21.206;2023-04-06T08:53:00;3.33;;;2.20;;
36745;SDS011;22715;52.182;21.206;2023-04-06T08:55:52;3.05;;;1.92;;
36745;SDS011;22715;52.182;21.206;2023-04-06T08:58:18;5.35;;;2.25;;
36745;SDS011;22715;52.182;21.206;2023-04-06T09:00:43;4.93;;;2.65;;
36745;SDS011;22715;52.182;21.206;2023-04-06T09:03:09;3.50;;;2.28;;
36745;SDS011;22715;52.182;21.206;2023-04-06T09:05:37;2.85;;;2.00;;
36745;SDS011;22715;52.182;21.206;2023-04-06T09:13:03;4.80;;;2.17;;
36745;SDS011;22715;52.182;21.206;2023-04-06T09:15:31;4.70;;;2.20;;
36745;SDS011;22715;52.182;21.206;2023-04-06T09:18:04;5.47;;;3.05;;
36745;SDS011;22715;52.182;21.206;2023-04-06T09:20:30;2.60;;;2.30;;
36745;SDS011;22715;52.182;21.206;2023-04-06T09:22:56;5.70;;;2.05;;
36745;SDS011;22715;52.182;21.206;2023-04-06T09:25:22;2.78;;;2.20;;
36745;SDS011;22715;52.182;21.206;2023-04-06T09:28:00;2.67;;;2.00;;
36745;SDS011;22715;52.182;21.206;2023-04-06T09:30:26;8.02;;;2.72;;
36745;SDS011;22715;52.182;21.206;2023-04-06T09:32:54;3.58;;;2.78;;
36745;SDS011;22715;52.182;21.206;2023-04-06T09:35:20;6.00;;;2.88;;
36745;SDS011;22715;52.182;21.206;2023-04-06T09:37:48;3.45;;;2.63;;
36745;SDS011;22715;52.182;21.206;2023-04-06T09:40:14;3.88;;;2.40;;
36745;SDS011;22715;52.182;21.206;2023-04-06T09:42:45;4.38;;;2.05;;
36745;SDS011;22715;52.182;21.206;2023-04-06T09:45:11;3.28;;;2.30;;
36745;SDS011;22715;52.182;21.206;2023-04-06T09:47:39;7.07;;;2.97;;
36745;SDS011;22715;52.182;21.206;2023-04-06T09:50:07;3.33;;;2.20;;
36745;SDS011;22715;52.182;21.206;2023-04-06T09:52:35;3.42;;;2.28;;
36745;SDS011;22715;52.182;21.206;2023-04-06T09:58:18;3.38;;;2.25;;
36745;SDS011;22715;52.182;21.206;2023-04-06T10:00:19;4.05;;;2.85;;
36745;SDS011;22715;52.182;21.206;2023-04-06T10:05:42;3.78;;;2.45;;
36745;SDS011;22715;52.182;21.206;2023-04-06T10:08:22;4.85;;;2.55;;
36745;SDS011;22715;52.182;21.206;2023-04-06T10:10:53;5.22;;;2.65;;
36745;SDS011;22715;52.182;21.206;2023-04-06T10:13:18;4.50;;;3.67;;
36745;SDS011;22715;52.182;21.206;2023-04-06T10:15:44;4.57;;;2.50;;
36745;SDS011;22715;52.182;21.206;2023-04-06T10:18:12;4.90;;;2.55;;
36745;SDS011;22715;52.182;21.206;2023-04-06T10:20:55;6.80;;;3.28;;
36745;SDS011;22715;52.182;21.206;2023-04-06T10:26:03;5.25;;;2.35;;
36745;SDS011;22715;52.182;21.206;2023-04-06T10:28:33;3.70;;;2.10;;
36745;SDS011;22715;52.182;21.206;2023-04-06T10:31:00;6.40;;;3.55;;
36745;SDS011;22715;52.182;21.206;2023-04-06T10:33:26;5.07;;;2.30;;
36745;SDS011;22715;52.182;21.206;2023-04-06T10:35:52;4.07;;;2.50;;
36745;SDS011;22715;52.182;21.206;2023-04-06T10:38:20;5.75;;;4.05;;
36745;SDS011;22715;52.182;21.206;2023-04-06T10:40:49;5.93;;;3.72;;
36745;SDS011;22715;52.182;21.206;2023-04-06T10:43:18;4.40;;;2.70;;
36745;SDS011;22715;52.182;21.206;2023-04-06T10:45:44;4.20;;;3.15;;
36745;SDS011;22715;52.182;21.206;2023-04-06T10:48:18;5.28;;;3.28;;
36745;SDS011;22715;52.182;21.206;2023-04-06T10:50:44;3.38;;;2.72;;
36745;SDS011;22715;52.182;21.206;2023-04-06T10:53:20;5.10;;;2.83;;
36745;SDS011;22715;52.182;21.206;2023-04-06T10:55:45;7.00;;;4.10;;
36745;SDS011;22715;52.182;21.206;2023-04-06T10:58:11;3.65;;;2.88;;
36745;SDS011;22715;52.182;21.206;2023-04-06T11:00:43;5.22;;;3.25;;
36745;SDS011;22715;52.182;21.206;2023-04-06T11:03:08;6.68;;;3.20;;
36745;SDS011;22715;52.182;21.206;2023-04-06T11:05:36;3.47;;;2.97;;
36745;SDS011;22715;52.182;21.206;2023-04-06T11:11:03;6.25;;;3.95;;
36745;SDS011;22715;52.182;21.206;2023-04-06T11:16:20;5.57;;;3.40;;
36745;SDS011;22715;52.182;21.206;2023-04-06T11:19:04;8.05;;;3.35;;
36745;SDS011;22715;52.182;21.206;2023-04-06T11:21:45;3.30;;;2.78;;
36745;SDS011;22715;52.182;21.206;2023-04-06T11:24:19;3.97;;;2.58;;
36745;SDS011;22715;52.182;21.206;2023-04-06T11:26:50;3.92;;;2.85;;
36745;SDS011;22715;52.182;21.206;2023-04-06T11:29:28;7.05;;;3.40;;
36745;SDS011;22715;52.182;21.206;2023-04-06T11:34:59;10.38;;;3.10;;
36745;SDS011;22715;52.182;21.206;2023-04-06T11:37:34;5.83;;;3.67;;
36745;SDS011;22715;52.182;21.206;2023-04-06T11:42:37;4.88;;;2.83;;
36745;SDS011;22715;52.182;21.206;2023-04-06T11:45:02;4.28;;;2.63;;
36745;SDS011;22715;52.182;21.206;2023-04-06T11:47:29;3.42;;;2.95;;
36745;SDS011;22715;52.182;21.206;2023-04-06T11:49:55;6.40;;;3.35;;
36745;SDS011;22715;52.182;21.206;2023-04-06T11:52:22;5.93;;;3.83;;
36745;SDS011;22715;52.182;21.206;2023-04-06T11:54:54;5.45;;;3.05;;
36745;SDS011;22715;52.182;21.206;2023-04-06T11:57:22;5.03;;;2.92;;
36745;SDS011;22715;52.182;21.206;2023-04-06T11:59:50;4.10;;;3.10;;
36745;SDS011;22715;52.182;21.206;2023-04-06T12:02:15;5.55;;;2.90;;
36745;SDS011;22715;52.182;21.206;2023-04-06T12:04:41;3.55;;;3.25;;
36745;SDS011;22715;52.182;21.206;2023-04-06T12:07:18;6.22;;;3.58;;
36745;SDS011;22715;52.182;21.206;2023-04-06T12:09:45;5.45;;;3.72;;
36745;SDS011;22715;52.182;21.206;2023-04-06T12:12:11;5.13;;;3.05;;
36745;SDS011;22715;52.182;21.206;2023-04-06T12:14:39;3.85;;;3.28;;
36745;SDS011;22715;52.182;21.206;2023-04-06T12:17:04;7.65;;;4.07;;
36745;SDS011;22715;52.182;21.206;2023-04-06T12:19:30;4.00;;;2.60;;
36745;SDS011;22715;52.182;21.206;2023-04-06T12:21:56;6.30;;;3.33;;
36745;SDS011;22715;52.182;21.206;2023-04-06T12:24:23;3.83;;;2.95;;
36745;SDS011;22715;52.182;21.206;2023-04-06T12:26:48;5.78;;;3.25;;
36745;SDS011;22715;52.182;21.206;2023-04-06T12:29:13;7.72;;;2.95;;
36745;SDS011;22715;52.182;21.206;2023-04-06T12:31:39;4.30;;;3.67;;
36745;SDS011;22715;52.182;21.206;2023-04-06T12:34:06;4.97;;;3.03;;
36745;SDS011;22715;52.182;21.206;2023-04-06T12:36:31;5.68;;;3.28;;
36745;SDS011;22715;52.182;21.206;2023-04-06T12:38:57;3.60;;;2.88;;
36745;SDS011;22715;52.182;21.206;2023-04-06T12:41:29;4.80;;;2.95;;
36745;SDS011;22715;52.182;21.206;2023-04-06T12:43:55;3.92;;;2.60;;
36745;SDS011;22715;52.182;21.206;2023-04-06T12:46:26;5.63;;;3.60;;
36745;SDS011;22715;52.182;21.206;2023-04-06T12:48:52;4.22;;;3.22;;
36745;SDS011;22715;52.182;21.206;2023-04-06T12:51:20;8.00;;;3.63;;
36745;SDS011;22715;52.182;21.206;2023-04-06T12:53:46;4.60;;;3.30;;
36745;SDS011;22715;52.182;21.206;2023-04-06T12:56:13;6.00;;;2.83;;
36745;SDS011;22715;52.182;21.206;2023-04-06T12:58:38;5.45;;;2.83;;
36745;SDS011;22715;52.182;21.206;2023-04-06T13:01:12;4.88;;;3.60;;
36745;SDS011;22715;52.182;21.206;2023-04-06T13:03:42;5.38;;;2.60;;
36745;SDS011;22715;52.182;21.206;2023-04-06T13:06:12;4.80;;;3.22;;
36745;SDS011;22715;52.182;21.206;2023-04-06T13:08:38;5.72;;;2.95;;
36745;SDS011;22715;52.182;21.206;2023-04-06T13:11:05;7.88;;;3.10;;
36745;SDS011;22715;52.182;21.206;2023-04-06T13:13:31;7.28;;;3.55;;
36745;SDS011;22715;52.182;21.206;2023-04-06T13:16:02;4.15;;;3.15;;
36745;SDS011;22715;52.182;21.206;2023-04-06T13:18:30;6.20;;;3.80;;
36745;SDS011;22715;52.182;21.206;2023-04-06T13:20:57;5.32;;;3.08;;
36745;SDS011;22715;52.182;21.206;2023-04-06T13:23:24;4.85;;;3.55;;
36745;SDS011;22715;52.182;21.206;2023-04-06T13:25:56;6.05;;;3.33;;
36745;SDS011;22715;52.182;21.206;2023-04-06T13:28:24;5.88;;;3.40;;
36745;SDS011;22715;52.182;21.206;2023-04-06T13:30:51;4.03;;;3.08;;
36745;SDS011;22715;52.182;21.206;2023-04-06T13:33:16;6.65;;;3.63;;
36745;SDS011;22715;52.182;21.206;2023-04-06T13:35:44;4.28;;;3.40;;
36745;SDS011;22715;52.182;21.206;2023-04-06T13:38:09;5.95;;;3.75;;
36745;SDS011;22715;52.182;21.206;2023-04-06T13:40:36;6.13;;;3.90;;
36745;SDS011;22715;52.182;21.206;2023-04-06T13:43:03;6.38;;;3.35;;
36745;SDS011;22715;52.182;21.206;2023-04-06T13:45:30;5.57;;;4.53;;
36745;SDS011;22715;52.182;21.206;2023-04-06T13:47:58;6.22;;;4.22;;
36745;SDS011;22715;52.182;21.206;2023-04-06T13:50:25;4.85;;;3.20;;
36745;SDS011;22715;52.182;21.206;2023-04-06T13:52:51;7.43;;;4.00;;
36745;SDS011;22715;52.182;21.206;2023-04-06T13:55:16;5.65;;;3.90;;
36745;SDS011;22715;52.182;21.206;2023-04-06T13:57:41;10.07;;;6.20;;
36745;SDS011;22715;52.182;21.206;2023-04-06T14:00:08;4.68;;;3.53;;
36745;SDS011;22715;52.182;21.206;2023-04-06T14:02:34;9.07;;;4.28;;
36745;SDS011;22715;52.182;21.206;2023-04-06T14:05:00;7.22;;;5.10;;
36745;SDS011;22715;52.182;21.206;2023-04-06T14:07:25;4.72;;;3.80;;
36745;SDS011;22715;52.182;21.206;2023-04-06T14:09:51;6.32;;;4.25;;
36745;SDS011;22715;52.182;21.206;2023-04-06T14:12:16;6.30;;;4.15;;
36745;SDS011;22715;52.182;21.206;2023-04-06T14:14:42;4.65;;;3.45;;
36745;SDS011;22715;52.182;21.206;2023-04-06T14:17:08;6.55;;;4.10;;
36745;SDS011;22715;52.182;21.206;2023-04-06T14:19:33;5.57;;;3.97;;
36745;SDS011;22715;52.182;21.206;2023-04-06T14:22:00;8.00;;;4.82;;
36745;SDS011;22715;52.182;21.206;2023-04-06T14:24:35;9.93;;;5.72;;
36745;SDS011;22715;52.182;21.206;2023-04-06T14:27:03;5.85;;;4.32;;
36745;SDS011;22715;52.182;21.206;2023-04-06T14:29:32;6.82;;;4.40;;
36745;SDS011;22715;52.182;21.206;2023-04-06T14:34:26;9.73;;;4.82;;
36745;SDS011;22715;52.182;21.206;2023-04-06T14:37:09;5.85;;;4.18;;
36745;SDS011;22715;52.182;21.206;2023-04-06T14:39:35;9.73;;;4.95;;
36745;SDS011;22715;52.182;21.206;2023-04-06T14:42:01;7.38;;;4.43;;
36745;SDS011;22715;52.182;21.206;2023-04-06T14:47:09;9.07;;;4.18;;
36745;SDS011;22715;52.182;21.206;2023-04-06T14:49:35;6.47;;;4.15;;
36745;SDS011;22715;52.182;21.206;2023-04-06T14:54:33;9.23;;;4.63;;
36745;SDS011;22715;52.182;21.206;2023-04-06T14:57:12;9.20;;;5.40;;
36745;SDS011;22715;52.182;21.206;2023-04-06T14:59:38;6.63;;;5.20;;
36745;SDS011;22715;52.182;21.206;2023-04-06T15:02:03;5.38;;;4.10;;
36745;SDS011;22715;52.182;21.206;2023-04-06T15:04:33;7.07;;;5.22;;
36745;SDS011;22715;52.182;21.206;2023-04-06T15:06:59;9.23;;;4.97;;
36745;SDS011;22715;52.182;21.206;2023-04-06T15:09:24;6.47;;;5.53;;
36745;SDS011;22715;52.182;21.206;2023-04-06T15:11:50;7.28;;;4.93;;
36745;SDS011;22715;52.182;21.206;2023-04-06T15:14:15;7.63;;;4.32;;
36745;SDS011;22715;52.182;21.206;2023-04-06T15:16:41;7.70;;;4.70;;
36745;SDS011;22715;52.182;21.206;2023-04-06T15:19:06;8.05;;;5.28;;
36745;SDS011;22715;52.182;21.206;2023-04-06T15:21:35;6.47;;;4.88;;
36745;SDS011;22715;52.182;21.206;2023-04-06T15:24:01;6.85;;;5.22;;